This is the latest recevied weather packets stored in our database for station/object YO8SHU-10. If no packets are shown the sender has not sent any weather packets the latest 10 day(s).
| Time | Temp. | Humidity | Pressure | Rain* | Wind** | Luminosity | Snow |
|---|---|---|---|---|---|---|---|
| 1777308209 | 17.78° C | 35% | 1023.8 hPa | - | - | - | - |
| 1777306409 | 20° C | 31% | 1023.8 hPa | - | - | - | - |
| 1777304609 | 21.11° C | 30% | 1023.8 hPa | - | - | - | - |
| 1777302809 | 21.11° C | 30% | 1024.1 hPa | - | - | - | - |
| 1777301008 | 21.67° C | 28% | 1024 hPa | - | - | - | - |
| 1777299208 | 20° C | 33% | 1024.4 hPa | - | - | - | - |
| 1777297408 | 17.22° C | 40% | 1024.7 hPa | - | - | - | - |
| 1777295606 | 16.67° C | 39% | 1025 hPa | - | - | - | - |
| 1777293806 | 17.22° C | 36% | 1025.4 hPa | - | - | - | - |
| 1777292006 | 17.22° C | 32% | 1025.8 hPa | - | - | - | - |
| 1777290206 | 17.78° C | 36% | 1026.3 hPa | - | - | - | - |
| 1777288406 | 16.67° C | 37% | 1026.8 hPa | - | - | - | - |
| 1777286606 | 16.67° C | 41% | 1027.5 hPa | - | - | - | - |
| 1777284806 | 16.11° C | 43% | 1028.1 hPa | - | - | - | - |
| 1777283006 | 15° C | 38% | 1028.7 hPa | - | - | - | - |
| 1777281206 | 13.89° C | 36% | 1029.4 hPa | - | - | - | - |
| 1777279406 | 12.78° C | 47% | 1029.8 hPa | - | - | - | - |
| 1777277605 | 11.67° C | 53% | 1030.1 hPa | - | - | - | - |
| 1777275805 | 10.56° C | 58% | 1030.3 hPa | - | - | - | - |
| 1777274005 | 11.11° C | 54% | 1030.4 hPa | - | - | - | - |
| 1777272205 | 10.56° C | 68% | 1030.7 hPa | - | - | - | - |
| 1777270405 | 9.44° C | 69% | 1030.8 hPa | - | - | - | - |
| 1777268605 | 9.44° C | 73% | 1030.8 hPa | - | - | - | - |
| 1777266805 | 9.44° C | 69% | 1030.6 hPa | - | - | - | - |
| 1777265005 | 12.22° C | 48% | 1030.2 hPa | - | - | - | - |
* Rain since midnight (hover to see other rain measurements)
** Current wind speed in m/s (hover to see current wind gust speed)